createdAt,value
2022-12-26T00:01:14.228Z,70.09
2022-12-26T00:06:23.217Z,69.71
2022-12-26T00:11:26.919Z,70.45
2022-12-26T00:16:30.273Z,70.43
2022-12-26T00:21:33.400Z,70.08
2022-12-26T00:26:37.284Z,69.50
2022-12-26T00:31:40.459Z,70.65
2022-12-26T00:36:43.538Z,69.37
2022-12-26T00:41:46.554Z,69.68
2022-12-26T00:46:49.791Z,69.82
2022-12-26T00:51:52.867Z,69.00
2022-12-26T00:56:55.970Z,68.62
2022-12-26T01:01:59.335Z,68.23
2022-12-26T01:07:02.497Z,68.52
2022-12-26T01:12:05.610Z,68.30
2022-12-26T01:17:10.033Z,68.07
2022-12-26T01:22:13.121Z,67.77
2022-12-26T01:27:16.170Z,68.36
2022-12-26T01:32:19.528Z,68.93
2022-12-26T01:37:23.898Z,68.53
2022-12-26T01:42:40.062Z,68.79
2022-12-26T01:48:09.513Z,69.76
2022-12-26T01:53:29.328Z,69.20
2022-12-26T01:58:36.482Z,68.78
2022-12-26T02:04:00.506Z,68.67
2022-12-26T02:09:03.781Z,68.91
2022-12-26T02:14:08.528Z,67.72
2022-12-26T02:19:33.305Z,68.27
2022-12-26T02:24:53.890Z,68.11
2022-12-26T02:30:07.826Z,67.77
2022-12-26T02:35:20.692Z,67.79
2022-12-26T02:40:47.819Z,67.71
2022-12-26T02:46:17.366Z,67.75
2022-12-26T02:51:55.226Z,67.67
2022-12-26T02:57:23.300Z,67.21
2022-12-26T03:03:02.648Z,68.01
2022-12-26T03:08:25.347Z,67.69
2022-12-26T03:13:33.943Z,68.46
2022-12-26T03:18:59.074Z,67.77
2022-12-26T03:24:03.825Z,68.03
2022-12-26T03:29:34.104Z,67.40
2022-12-26T03:34:44.899Z,67.50
2022-12-26T03:40:38.905Z,67.86
2022-12-26T03:46:15.176Z,67.11
2022-12-26T03:51:54.864Z,67.78
2022-12-26T03:57:27.667Z,67.23
2022-12-26T04:02:50.845Z,67.13
2022-12-26T04:08:19.169Z,66.56
2022-12-26T04:13:49.636Z,65.94
2022-12-26T04:19:26.236Z,65.32
2022-12-26T04:24:54.776Z,65.29
2022-12-26T04:30:16.623Z,64.98
2022-12-26T04:36:03.759Z,64.20
2022-12-26T04:41:29.996Z,63.92
2022-12-26T04:46:35.423Z,63.08
2022-12-26T04:51:38.765Z,63.71
2022-12-26T04:56:41.814Z,64.04
2022-12-26T05:02:03.715Z,64.22
2022-12-26T05:07:34.327Z,64.98
2022-12-26T05:12:37.453Z,65.32
2022-12-26T05:17:59.001Z,65.92
2022-12-26T05:23:21.850Z,66.15
2022-12-26T05:28:43.148Z,66.49
2022-12-26T05:34:05.151Z,67.52
2022-12-26T05:44:41.984Z,68.22
2022-12-26T05:49:45.270Z,68.54
2022-12-26T05:54:48.292Z,68.92
2022-12-26T05:59:51.473Z,69.29
2022-12-26T06:04:54.539Z,69.73
2022-12-26T06:09:57.639Z,70.01
2022-12-26T06:15:00.789Z,69.28
2022-12-26T06:20:04.439Z,68.70
2022-12-26T06:25:08.477Z,68.82
2022-12-26T06:30:11.956Z,69.16
2022-12-26T06:35:15.261Z,68.49
2022-12-26T06:40:18.379Z,68.09
2022-12-26T06:45:22.180Z,67.88
2022-12-26T06:50:25.233Z,68.67
2022-12-26T06:55:28.348Z,69.39
2022-12-26T07:00:31.493Z,69.08
2022-12-26T07:11:01.008Z,68.78
2022-12-26T07:16:04.361Z,68.99
2022-12-26T07:21:12.917Z,68.69
2022-12-26T07:26:16.537Z,68.59
2022-12-26T07:31:20.786Z,66.79
2022-12-26T07:36:25.486Z,65.45
2022-12-26T07:41:48.088Z,64.86
2022-12-26T07:52:10.400Z,65.00
2022-12-26T07:57:46.888Z,64.11
2022-12-26T08:02:36.687Z,63.77
2022-12-26T08:07:39.851Z,63.29
2022-12-26T08:12:43.115Z,63.07
2022-12-26T08:17:46.290Z,62.31
2022-12-26T08:22:49.491Z,63.12
2022-12-26T08:27:52.539Z,63.24
2022-12-26T08:32:55.595Z,61.93
2022-12-26T08:38:09.229Z,61.84
2022-12-26T08:43:44.961Z,61.53
2022-12-26T08:48:40.950Z,61.13
2022-12-26T08:53:46.292Z,61.68
2022-12-26T08:58:49.607Z,62.38
2022-12-26T09:03:57.758Z,61.82
2022-12-26T09:09:01.605Z,62.11
2022-12-26T09:14:05.381Z,62.34
2022-12-26T09:19:13.041Z,62.28
2022-12-26T09:24:18.489Z,62.14
2022-12-26T09:34:38.892Z,62.71
2022-12-26T09:39:42.038Z,62.25
2022-12-26T09:45:03.546Z,63.25
2022-12-26T09:50:10.137Z,63.81
2022-12-26T09:55:40.745Z,63.06
2022-12-26T10:00:53.289Z,63.90
2022-12-26T10:12:05.286Z,63.01
2022-12-26T10:17:15.235Z,64.14
2022-12-26T10:22:56.126Z,63.51
2022-12-26T10:28:01.150Z,63.67
2022-12-26T10:33:14.643Z,63.37
2022-12-26T10:38:40.808Z,63.41
2022-12-26T10:43:45.931Z,63.44
2022-12-26T10:48:49.122Z,62.85
2022-12-26T10:53:54.240Z,62.66
2022-12-26T10:59:03.963Z,62.34
2022-12-26T11:04:21.921Z,62.00
2022-12-26T11:09:43.138Z,62.15
2022-12-26T11:14:46.665Z,61.87
2022-12-26T11:19:49.875Z,61.33
2022-12-26T11:25:11.230Z,61.65
2022-12-26T11:30:34.079Z,61.61
2022-12-26T11:35:45.189Z,61.73
2022-12-26T11:41:12.110Z,61.91
2022-12-26T11:46:16.807Z,61.91
2022-12-26T11:51:42.583Z,62.27
2022-12-26T11:56:45.714Z,61.98
2022-12-26T12:02:10.833Z,61.56
2022-12-26T12:07:43.558Z,61.56
2022-12-26T12:13:28.593Z,61.21
2022-12-26T12:24:33.889Z,60.92
2022-12-26T12:30:00.221Z,61.51
2022-12-26T12:35:27.148Z,61.68
2022-12-26T12:40:44.028Z,61.52
2022-12-26T12:46:09.753Z,62.29
2022-12-26T12:51:41.875Z,61.85
2022-12-26T12:56:53.743Z,61.37
2022-12-26T13:02:08.539Z,61.75
2022-12-26T13:07:25.775Z,62.09
2022-12-26T13:12:40.236Z,62.14
2022-12-26T13:17:55.252Z,63.00
2022-12-26T13:23:49.750Z,63.62
2022-12-26T13:29:04.910Z,63.96
2022-12-26T13:34:18.570Z,64.02
2022-12-26T13:39:27.922Z,65.49
2022-12-26T13:44:33.160Z,65.62
2022-12-26T13:49:39.336Z,66.27
2022-12-26T13:54:48.405Z,66.15
2022-12-26T14:00:09.696Z,66.27
2022-12-26T14:05:53.693Z,66.40
2022-12-26T14:11:14.822Z,65.65
2022-12-26T14:16:36.355Z,65.87
2022-12-26T14:21:51.259Z,66.35
2022-12-26T14:26:54.403Z,65.38
2022-12-26T14:32:13.025Z,65.18
2022-12-26T14:37:27.696Z,64.75
2022-12-26T14:42:49.654Z,64.86
2022-12-26T14:47:52.833Z,64.22
2022-12-26T14:52:55.991Z,64.40
2022-12-26T14:58:31.547Z,64.39
2022-12-26T15:03:57.520Z,64.40
2022-12-26T15:09:41.858Z,64.81
2022-12-26T15:15:06.610Z,65.39
2022-12-26T15:20:21.501Z,66.44
2022-12-26T15:31:29.686Z,66.54
2022-12-26T15:36:51.034Z,66.89
2022-12-26T15:42:24.323Z,66.31
2022-12-26T15:47:47.824Z,66.38
2022-12-26T15:53:19.915Z,66.26
2022-12-26T15:58:22.875Z,66.04
2022-12-26T16:03:44.343Z,65.69
2022-12-26T16:09:15.465Z,65.96
2022-12-26T16:14:44.706Z,65.58
2022-12-26T16:19:52.715Z,65.16
2022-12-26T16:24:56.265Z,65.01
2022-12-26T16:30:11.347Z,65.99
2022-12-26T16:35:33.759Z,65.85
2022-12-26T16:40:48.480Z,66.08
2022-12-26T16:46:02.784Z,65.94
2022-12-26T16:51:28.838Z,66.46
2022-12-26T16:56:34.684Z,66.05
2022-12-26T17:01:38.271Z,66.29
2022-12-26T17:06:52.128Z,66.17
2022-12-26T17:12:05.322Z,66.00
2022-12-26T17:17:23.045Z,66.92
2022-12-26T17:22:30.475Z,67.23
2022-12-26T17:27:34.244Z,66.61
2022-12-26T17:32:43.169Z,66.46
2022-12-26T17:37:49.910Z,66.71
2022-12-26T17:42:55.752Z,65.68
2022-12-26T17:47:59.207Z,66.18
2022-12-26T17:53:06.317Z,65.35
2022-12-26T17:58:13.893Z,65.17
2022-12-26T18:03:17.022Z,65.59
2022-12-26T18:08:37.607Z,65.96
2022-12-26T18:13:41.173Z,65.31
2022-12-26T18:18:45.609Z,64.79
2022-12-26T18:23:48.702Z,65.31
2022-12-26T18:28:52.705Z,65.38
2022-12-26T18:33:56.302Z,65.42
2022-12-26T18:38:59.575Z,64.70
2022-12-26T18:44:03.123Z,64.52
2022-12-26T18:49:06.288Z,64.28
2022-12-26T18:54:09.321Z,64.74
2022-12-26T18:59:12.566Z,64.91
2022-12-26T19:04:17.066Z,64.20
2022-12-26T19:09:20.457Z,64.68
2022-12-26T19:14:23.557Z,64.53
2022-12-26T19:19:29.752Z,64.62
2022-12-26T19:24:34.352Z,64.48
2022-12-26T19:29:37.668Z,64.84
2022-12-26T19:34:40.744Z,64.35
2022-12-26T19:39:43.801Z,64.46
2022-12-26T19:44:48.235Z,65.17
2022-12-26T19:49:51.227Z,64.33
2022-12-26T19:54:54.413Z,64.57
2022-12-26T19:59:58.466Z,64.85
2022-12-26T20:05:01.558Z,63.70
2022-12-26T20:15:25.399Z,64.42
2022-12-26T20:20:28.943Z,64.47
2022-12-26T20:25:31.997Z,64.43
2022-12-26T20:30:35.110Z,64.75
2022-12-26T20:35:38.243Z,65.49
2022-12-26T20:40:45.350Z,65.70
2022-12-26T20:45:54.297Z,64.86
2022-12-26T20:51:21.218Z,65.18
2022-12-26T20:56:24.730Z,64.61
2022-12-26T21:01:28.734Z,65.01
2022-12-26T21:06:35.203Z,65.77
2022-12-26T21:11:40.112Z,64.90
2022-12-26T21:16:49.730Z,65.54
2022-12-26T21:21:55.026Z,65.68
2022-12-26T21:26:58.152Z,65.19
2022-12-26T21:32:02.743Z,64.40
2022-12-26T21:37:24.305Z,64.62
2022-12-26T21:42:27.368Z,65.62
2022-12-26T21:47:30.468Z,64.83
2022-12-26T21:52:33.557Z,64.70
2022-12-26T21:57:36.731Z,65.08
2022-12-26T22:02:58.543Z,64.74
2022-12-26T22:08:02.930Z,65.08
2022-12-26T22:13:07.072Z,65.45
2022-12-26T22:18:10.521Z,64.45
2022-12-26T22:23:14.322Z,64.18
2022-12-26T22:28:21.680Z,64.86
2022-12-26T22:33:27.598Z,65.42
2022-12-26T22:38:30.922Z,64.75
2022-12-26T22:43:33.939Z,65.23
2022-12-26T22:48:37.128Z,65.22
2022-12-26T22:53:40.198Z,65.03
2022-12-26T22:58:47.465Z,65.24
2022-12-26T23:03:51.090Z,65.54
2022-12-26T23:08:57.652Z,65.64
2022-12-26T23:14:05.154Z,65.47
2022-12-26T23:19:35.224Z,66.08
2022-12-26T23:24:38.369Z,65.20
2022-12-26T23:30:00.110Z,65.42
2022-12-26T23:35:04.326Z,65.67
2022-12-26T23:40:09.374Z,65.36
2022-12-26T23:45:13.946Z,65.15
2022-12-26T23:50:17.465Z,65.58
2022-12-26T23:55:20.474Z,65.59
